Lac Courte Oreilles Indian R, Wisconsin
Current Conditions -  °F | °C
As of 11:53 PM on Friday 28 Nov 2014 (Local Time) from KASX Reporting Station
Overcast Overcast  
Wind Chill: 19°   Ceiling: 3700
Heat Index: 19°   Visibility: 10mi
Dew Point: 15°   Wind: 0mph
Humidity: 85%   Direction: NA
Pressure: 29.76"   Gusts: NA
Location:  46.543°N, 90.8706°W
Report Text: KASX 290553Z AUTO 00000KT 10SM OVC037 M07/M09 A2976 RMK AO2 SLP096 60000 T10721094 11072 21083 410721150 58031
Loading
Personal Weather Stations






























Interactive Weather Map New forecast layout! Learn more

10-Day Weather Forecast

Advertisements
Track Severe Weather on mobile